createdAt,value
2023-04-17T00:00:19.016Z,9.81
2023-04-17T00:02:45.653Z,9.79
2023-04-17T00:05:13.781Z,9.83
2023-04-17T00:07:40.353Z,9.80
2023-04-17T00:10:08.775Z,9.78
2023-04-17T00:12:35.581Z,9.78
2023-04-17T00:15:03.259Z,9.79
2023-04-17T00:17:29.887Z,9.74
2023-04-17T00:19:56.562Z,9.75
2023-04-17T00:22:24.753Z,9.74
2023-04-17T00:24:51.363Z,9.74
2023-04-17T00:27:17.963Z,9.75
2023-04-17T00:29:44.605Z,9.74
2023-04-17T00:32:11.262Z,9.74
2023-04-17T00:34:37.851Z,9.73
2023-04-17T00:37:04.441Z,9.71
2023-04-17T00:39:32.363Z,9.69
2023-04-17T00:41:59.184Z,9.69
2023-04-17T00:44:25.713Z,9.69
2023-04-17T00:46:52.579Z,9.69
2023-04-17T00:49:19.561Z,9.69
2023-04-17T00:51:46.319Z,9.68
2023-04-17T00:54:13.456Z,9.69
2023-04-17T00:56:43.756Z,9.64
2023-04-17T00:59:12.741Z,9.65
2023-04-17T01:01:39.717Z,9.64
2023-04-17T01:04:08.107Z,9.61
2023-04-17T01:06:35.374Z,9.61
2023-04-17T01:09:02.304Z,9.63
2023-04-17T01:11:28.920Z,9.60
2023-04-17T01:13:56.899Z,9.61
2023-04-17T01:16:23.591Z,9.57
2023-04-17T01:18:50.266Z,9.59
2023-04-17T01:21:17.013Z,9.58
2023-04-17T01:23:45.425Z,9.56
2023-04-17T01:26:16.451Z,9.58
2023-04-17T01:28:43.270Z,9.58
2023-04-17T01:31:14.756Z,9.57
2023-04-17T01:33:41.352Z,9.63
2023-04-17T01:36:08.455Z,9.60
2023-04-17T01:38:35.150Z,9.58
2023-04-17T01:41:01.716Z,9.58
2023-04-17T01:43:29.944Z,9.60
2023-04-17T01:45:56.548Z,9.61
2023-04-17T01:48:25.003Z,9.61
2023-04-17T01:50:51.647Z,9.57
2023-04-17T01:53:18.267Z,9.58
2023-04-17T01:55:44.921Z,9.55
2023-04-17T01:58:12.156Z,9.55
2023-04-17T02:00:40.119Z,9.56
2023-04-17T02:03:06.966Z,9.53
2023-04-17T02:05:33.619Z,9.52
2023-04-17T02:08:00.392Z,9.55
2023-04-17T02:10:26.963Z,9.51
2023-04-17T02:12:53.604Z,9.49
2023-04-17T02:15:20.264Z,9.49
2023-04-17T02:17:48.190Z,9.49
2023-04-17T02:20:14.795Z,9.46
2023-04-17T02:22:41.330Z,9.50
2023-04-17T02:25:08.314Z,9.45
2023-04-17T02:27:34.904Z,9.46
2023-04-17T02:30:01.564Z,9.46
2023-04-17T02:32:28.253Z,9.45
2023-04-17T02:34:56.389Z,9.47
2023-04-17T02:37:23.028Z,9.44
2023-04-17T02:39:49.727Z,9.42
2023-04-17T02:42:16.387Z,9.42
2023-04-17T02:44:42.989Z,9.44
2023-04-17T02:47:09.535Z,9.42
2023-04-17T02:49:36.138Z,9.42
2023-04-17T02:52:04.522Z,9.44
2023-04-17T02:54:31.188Z,9.46
2023-04-17T02:56:57.824Z,9.43
2023-04-17T02:59:24.801Z,9.46
2023-04-17T03:01:51.431Z,9.43
2023-04-17T03:04:19.323Z,9.47
2023-04-17T03:06:46.031Z,9.49
2023-04-17T03:09:14.229Z,9.51
2023-04-17T03:11:40.950Z,9.49
2023-04-17T03:14:07.491Z,9.48
2023-04-17T03:16:34.097Z,9.49
2023-04-17T03:19:02.360Z,9.47
2023-04-17T03:21:29.199Z,9.44
2023-04-17T03:23:55.897Z,9.47
2023-04-17T03:26:23.866Z,9.48
2023-04-17T03:28:50.474Z,9.47
2023-04-17T03:31:17.325Z,9.48
2023-04-17T03:33:43.944Z,9.46
2023-04-17T03:36:10.878Z,9.47
2023-04-17T03:38:38.094Z,9.48
2023-04-17T03:41:06.991Z,9.47
2023-04-17T03:43:34.927Z,9.44
2023-04-17T03:46:01.748Z,9.46
2023-04-17T03:48:29.488Z,9.46
2023-04-17T03:50:56.119Z,9.45
2023-04-17T03:53:23.760Z,9.46
2023-04-17T03:55:50.756Z,9.48
2023-04-17T03:58:27.601Z,9.46
2023-04-17T04:00:55.703Z,9.47
2023-04-17T04:03:25.981Z,9.50
2023-04-17T04:05:53.272Z,9.45
2023-04-17T04:08:26.390Z,9.45
2023-04-17T04:11:06.399Z,9.43
2023-04-17T04:13:46.540Z,9.46
2023-04-17T04:16:27.689Z,9.42
2023-04-17T04:19:09.141Z,9.40
2023-04-17T04:21:50.392Z,9.41
2023-04-17T04:24:37.360Z,9.38
2023-04-17T04:27:14.352Z,9.40
2023-04-17T04:29:56.351Z,9.38
2023-04-17T04:32:42.389Z,9.39
2023-04-17T04:35:22.402Z,9.36
2023-04-17T04:37:55.792Z,9.37
2023-04-17T04:40:39.417Z,9.39
2023-04-17T04:43:12.847Z,9.34
2023-04-17T04:45:53.383Z,9.36
2023-04-17T04:48:31.366Z,9.31
2023-04-17T04:51:12.354Z,9.31
2023-04-17T04:53:47.511Z,9.32
2023-04-17T04:56:29.073Z,9.31
2023-04-17T04:59:10.510Z,9.32
2023-04-17T05:01:50.599Z,9.31
2023-04-17T05:04:31.484Z,9.32
2023-04-17T05:07:05.589Z,9.30
2023-04-17T05:09:47.390Z,9.30
2023-04-17T05:12:21.051Z,9.29
2023-04-17T05:15:00.559Z,9.31
2023-04-17T05:17:33.904Z,9.31
2023-04-17T05:20:16.450Z,9.32
2023-04-17T05:22:54.302Z,9.34
2023-04-17T05:25:34.433Z,9.33
2023-04-17T05:28:08.314Z,9.34
2023-04-17T05:30:48.369Z,9.36
2023-04-17T05:33:30.344Z,9.38
2023-04-17T05:36:14.425Z,9.39
2023-04-17T05:38:55.366Z,9.41
2023-04-17T05:41:44.725Z,9.45
2023-04-17T05:44:24.484Z,9.45
2023-04-17T05:46:58.117Z,9.49
2023-04-17T05:49:37.391Z,9.49
2023-04-17T05:52:12.235Z,9.54
2023-04-17T05:54:51.572Z,9.55
2023-04-17T05:57:25.243Z,9.56
2023-04-17T06:00:06.419Z,9.55
2023-04-17T06:02:48.945Z,9.58
2023-04-17T06:05:37.494Z,9.64
2023-04-17T06:08:12.174Z,9.66
2023-04-17T06:10:51.386Z,9.67
2023-04-17T06:13:25.389Z,9.72
2023-04-17T06:16:05.431Z,9.70
2023-04-17T06:18:46.370Z,9.74
2023-04-17T06:21:20.545Z,9.73
2023-04-17T06:24:01.439Z,9.72
2023-04-17T06:26:34.879Z,9.75
2023-04-17T06:29:14.381Z,9.75
2023-04-17T06:31:48.796Z,9.73
2023-04-17T06:34:29.440Z,9.70
2023-04-17T06:37:09.376Z,9.69
2023-04-17T06:39:44.469Z,9.68
2023-04-17T06:42:24.418Z,9.65
2023-04-17T06:45:01.498Z,9.66
2023-04-17T06:47:43.453Z,9.68
2023-04-17T06:50:17.146Z,9.76
2023-04-17T06:52:56.386Z,9.77
2023-04-17T06:55:37.449Z,9.87
2023-04-17T06:58:10.888Z,9.93
2023-04-17T07:00:37.439Z,9.98
2023-04-17T07:03:05.225Z,10.01
2023-04-17T07:05:31.923Z,10.06
2023-04-17T07:07:58.524Z,10.14
2023-04-17T07:10:25.120Z,10.22
2023-04-17T07:12:53.041Z,10.25
2023-04-17T07:15:19.860Z,10.23
2023-04-17T07:17:46.570Z,10.24
2023-04-17T07:20:13.181Z,10.24
2023-04-17T07:22:39.755Z,10.20
2023-04-17T07:25:07.636Z,10.25
2023-04-17T07:27:34.230Z,10.28
2023-04-17T07:30:02.174Z,10.38
2023-04-17T07:32:28.813Z,10.47
2023-04-17T07:34:55.368Z,10.55
2023-04-17T07:37:21.967Z,10.59
2023-04-17T07:39:48.905Z,10.62
2023-04-17T07:42:15.564Z,10.66
2023-04-17T07:44:42.194Z,10.64
2023-04-17T07:47:10.193Z,10.65
2023-04-17T07:49:36.950Z,10.70
2023-04-17T07:52:03.549Z,10.70
2023-04-17T07:54:31.148Z,10.67
2023-04-17T07:56:57.936Z,10.63
2023-04-17T07:59:24.711Z,10.65
2023-04-17T08:01:51.561Z,10.67
2023-04-17T08:04:19.780Z,10.69
2023-04-17T08:06:46.555Z,10.76
2023-04-17T08:09:13.564Z,10.84
2023-04-17T08:11:53.376Z,11.00
2023-04-17T08:14:23.317Z,11.19
2023-04-17T08:16:50.226Z,11.32
2023-04-17T08:19:16.954Z,11.50
2023-04-17T08:21:47.157Z,11.76
2023-04-17T08:24:13.837Z,11.80
2023-04-17T08:26:40.461Z,11.94
2023-04-17T08:29:07.003Z,12.18
2023-04-17T08:31:33.679Z,12.33
2023-04-17T08:34:12.986Z,12.53
2023-04-17T08:36:40.746Z,12.74
2023-04-17T08:39:08.891Z,12.65
2023-04-17T08:41:42.822Z,12.68
2023-04-17T08:44:09.436Z,12.69
2023-04-17T08:46:36.887Z,12.64
2023-04-17T08:49:03.680Z,12.56
2023-04-17T08:51:30.259Z,12.51
2023-04-17T08:53:56.838Z,12.44
2023-04-17T08:56:24.875Z,12.35
2023-04-17T08:58:51.447Z,12.28
2023-04-17T09:01:18.122Z,12.23
2023-04-17T09:03:47.901Z,12.24
2023-04-17T09:06:15.575Z,12.22
2023-04-17T09:08:55.379Z,12.25
2023-04-17T09:11:21.913Z,12.20
2023-04-17T09:13:49.907Z,12.18
2023-04-17T09:16:16.586Z,12.20
2023-04-17T09:18:43.228Z,12.22
2023-04-17T09:21:10.467Z,12.29
2023-04-17T09:23:48.799Z,12.48
2023-04-17T09:26:16.652Z,12.58
2023-04-17T09:29:02.441Z,12.74
2023-04-17T09:31:31.440Z,12.92
2023-04-17T09:33:59.182Z,13.00
2023-04-17T09:36:26.530Z,12.99
2023-04-17T09:38:53.150Z,12.95
2023-04-17T09:41:23.803Z,12.97
2023-04-17T09:43:51.573Z,13.19
2023-04-17T09:46:32.497Z,13.38
2023-04-17T09:49:01.646Z,13.30
2023-04-17T09:51:29.328Z,13.23
2023-04-17T09:53:57.269Z,13.34
2023-04-17T09:56:23.936Z,13.66
2023-04-17T09:58:51.571Z,14.14
2023-04-17T10:01:18.282Z,14.08
2023-04-17T10:03:46.534Z,14.16
2023-04-17T10:06:13.912Z,14.20
2023-04-17T10:08:40.953Z,14.32
2023-04-17T10:11:08.554Z,14.49
2023-04-17T10:13:38.509Z,14.50
2023-04-17T10:16:06.005Z,14.55
2023-04-17T10:18:32.691Z,14.53
2023-04-17T10:21:20.262Z,14.62
2023-04-17T10:23:47.082Z,14.39
2023-04-17T10:26:40.861Z,14.47
2023-04-17T10:29:07.523Z,14.18
2023-04-17T10:32:14.788Z,14.67
2023-04-17T10:34:43.700Z,14.92
2023-04-17T10:37:12.128Z,15.05
2023-04-17T10:39:50.742Z,15.49
2023-04-17T10:42:19.068Z,16.42
2023-04-17T10:44:46.372Z,17.19
2023-04-17T10:47:13.307Z,17.69
2023-04-17T10:49:50.447Z,17.71
2023-04-17T10:52:38.231Z,17.53
2023-04-17T10:55:06.000Z,17.12
2023-04-17T10:58:00.045Z,17.22
2023-04-17T11:00:35.550Z,16.87
2023-04-17T11:03:05.351Z,16.59
2023-04-17T11:05:32.531Z,16.51
2023-04-17T11:08:00.561Z,16.69
2023-04-17T11:10:27.355Z,17.88
2023-04-17T11:12:54.336Z,18.21
2023-04-17T11:15:26.698Z,19.00
2023-04-17T11:17:54.793Z,20.16
2023-04-17T11:20:22.272Z,20.32
2023-04-17T11:22:49.021Z,20.83
2023-04-17T11:25:25.322Z,21.97
2023-04-17T11:27:54.797Z,22.14
2023-04-17T11:30:26.124Z,20.91
2023-04-17T11:32:52.845Z,21.26
2023-04-17T11:35:23.100Z,20.77
2023-04-17T11:38:09.491Z,20.64
2023-04-17T11:40:42.062Z,19.63
2023-04-17T11:43:09.923Z,20.61
2023-04-17T11:45:37.461Z,21.54
2023-04-17T11:48:04.274Z,22.75
2023-04-17T11:50:31.689Z,23.34
2023-04-17T11:53:00.331Z,23.72
2023-04-17T11:55:27.068Z,23.87
2023-04-17T11:57:55.308Z,24.12
2023-04-17T12:00:22.799Z,23.41
2023-04-17T12:02:49.735Z,24.00
2023-04-17T12:05:16.648Z,24.45
2023-04-17T12:07:43.623Z,25.05
2023-04-17T12:10:10.404Z,25.42
2023-04-17T12:12:37.079Z,25.84
2023-04-17T12:15:06.220Z,26.08
2023-04-17T12:17:32.814Z,25.67
2023-04-17T12:19:59.612Z,25.92
2023-04-17T12:22:26.207Z,26.35
2023-04-17T12:24:52.814Z,26.36
2023-04-17T12:27:19.454Z,25.70
2023-04-17T12:29:46.044Z,24.99
2023-04-17T12:32:14.078Z,24.77
2023-04-17T12:34:40.688Z,24.67
2023-04-17T12:37:07.334Z,25.35
2023-04-17T12:39:33.903Z,25.16
2023-04-17T12:42:00.922Z,25.35
2023-04-17T12:44:27.481Z,25.02
2023-04-17T12:46:54.087Z,24.39
2023-04-17T12:49:22.100Z,24.05
2023-04-17T12:51:48.693Z,24.01
2023-04-17T12:54:15.351Z,24.40
2023-04-17T12:56:42.006Z,24.41
2023-04-17T12:59:08.659Z,24.76
2023-04-17T13:01:35.346Z,25.52
2023-04-17T13:04:02.130Z,26.06
2023-04-17T13:06:30.268Z,26.02
2023-04-17T13:08:56.807Z,26.11
2023-04-17T13:11:23.421Z,26.62
2023-04-17T13:13:50.082Z,27.49
2023-04-17T13:16:16.668Z,27.41
2023-04-17T13:18:43.322Z,27.02
2023-04-17T13:21:09.934Z,26.61
2023-04-17T13:23:37.885Z,27.73
2023-04-17T13:26:04.828Z,27.16
2023-04-17T13:28:31.406Z,25.91
2023-04-17T13:30:58.043Z,25.34
2023-04-17T13:33:24.765Z,25.78
2023-04-17T13:35:51.308Z,26.32
2023-04-17T13:38:17.932Z,27.45
2023-04-17T13:40:46.010Z,27.91
2023-04-17T13:43:12.772Z,27.70
2023-04-17T13:45:39.307Z,26.89
2023-04-17T13:48:05.928Z,26.57
2023-04-17T13:50:32.496Z,25.92
2023-04-17T13:52:59.028Z,25.45
2023-04-17T13:55:25.717Z,24.78
2023-04-17T13:57:53.653Z,24.96
2023-04-17T14:00:20.615Z,24.35
2023-04-17T14:02:47.311Z,23.59
2023-04-17T14:05:14.393Z,22.77
2023-04-17T14:07:41.122Z,22.37
2023-04-17T14:10:09.184Z,22.14
2023-04-17T14:12:36.039Z,22.02
2023-04-17T14:15:04.861Z,22.10
2023-04-17T14:17:31.517Z,21.64
2023-04-17T14:19:58.147Z,21.34
2023-04-17T14:22:24.802Z,21.86
2023-04-17T14:24:51.324Z,22.92
2023-04-17T14:27:17.904Z,23.73
2023-04-17T14:29:44.478Z,24.52
2023-04-17T14:32:12.406Z,25.72
2023-04-17T14:34:38.963Z,26.04
2023-04-17T14:37:05.587Z,25.22
2023-04-17T14:39:32.190Z,24.63
2023-04-17T14:42:00.520Z,24.52
2023-04-17T14:44:28.621Z,25.26
2023-04-17T14:46:55.313Z,25.10
2023-04-17T14:49:23.276Z,23.91
2023-04-17T14:51:49.805Z,22.88
2023-04-17T14:54:16.878Z,21.77
2023-04-17T14:56:43.486Z,21.05
2023-04-17T14:59:10.086Z,20.51
2023-04-17T15:01:36.829Z,20.33
2023-04-17T15:04:03.676Z,20.96
2023-04-17T15:06:31.825Z,21.92
2023-04-17T15:08:58.459Z,22.74
2023-04-17T15:11:24.996Z,23.30
2023-04-17T15:13:51.758Z,23.53
2023-04-17T15:16:18.421Z,23.55
2023-04-17T15:18:45.114Z,22.47
2023-04-17T15:21:11.822Z,21.40
2023-04-17T15:23:39.781Z,20.23
2023-04-17T15:26:06.364Z,20.69
2023-04-17T15:28:32.950Z,21.42
2023-04-17T15:30:59.614Z,21.76
2023-04-17T15:33:26.350Z,22.18
2023-04-17T15:35:54.259Z,22.36
2023-04-17T15:38:21.134Z,22.53
2023-04-17T15:40:49.048Z,22.55
2023-04-17T15:43:15.652Z,22.31
2023-04-17T15:45:42.360Z,22.42
2023-04-17T15:48:09.113Z,22.54
2023-04-17T15:50:35.893Z,22.50
2023-04-17T15:53:02.504Z,22.15
2023-04-17T15:55:29.088Z,21.90
2023-04-17T15:57:57.046Z,21.60
2023-04-17T16:00:23.655Z,21.36
2023-04-17T16:02:51.667Z,20.66
2023-04-17T16:05:19.160Z,20.25
2023-04-17T16:07:45.929Z,19.68
2023-04-17T16:10:12.817Z,19.45
2023-04-17T16:12:41.055Z,19.30
2023-04-17T16:15:10.690Z,19.14
2023-04-17T16:17:37.669Z,19.09
2023-04-17T16:20:05.310Z,19.02
2023-04-17T16:22:32.294Z,19.04
2023-04-17T16:24:58.862Z,18.67
2023-04-17T16:27:26.140Z,18.34
2023-04-17T16:29:52.698Z,18.09
2023-04-17T16:32:20.806Z,18.14
2023-04-17T16:34:47.500Z,18.17
2023-04-17T16:37:14.111Z,18.04
2023-04-17T16:39:40.935Z,17.60
2023-04-17T16:42:07.718Z,17.70
2023-04-17T16:44:34.460Z,17.68
2023-04-17T16:47:12.508Z,17.79
2023-04-17T16:49:41.836Z,17.78
2023-04-17T16:52:08.532Z,17.79
2023-04-17T16:54:35.128Z,17.93
2023-04-17T16:57:01.716Z,17.77
2023-04-17T16:59:28.298Z,17.83
2023-04-17T17:01:54.934Z,17.96
2023-04-17T17:04:21.521Z,17.88
2023-04-17T17:06:49.496Z,17.87
2023-04-17T17:09:16.068Z,17.90
2023-04-17T17:11:42.661Z,17.84
2023-04-17T17:14:09.252Z,17.79
2023-04-17T17:16:35.952Z,17.75
2023-04-17T17:19:02.597Z,17.76
2023-04-17T17:21:29.152Z,17.58
2023-04-17T17:23:57.016Z,17.53
2023-04-17T17:26:23.601Z,17.43
2023-04-17T17:28:50.204Z,17.19
2023-04-17T17:31:16.892Z,17.24
2023-04-17T17:33:44.627Z,17.16
2023-04-17T17:36:11.319Z,17.05
2023-04-17T17:38:37.934Z,16.86
2023-04-17T17:41:05.968Z,16.78
2023-04-17T17:43:32.502Z,16.66
2023-04-17T17:45:59.199Z,16.56
2023-04-17T17:48:25.853Z,16.43
2023-04-17T17:50:53.416Z,16.26
2023-04-17T17:53:23.463Z,16.18
2023-04-17T17:55:54.089Z,16.09
2023-04-17T17:58:22.181Z,15.98
2023-04-17T18:00:49.254Z,15.91
2023-04-17T18:03:16.275Z,15.87
2023-04-17T18:05:43.644Z,15.68
2023-04-17T18:08:10.416Z,15.62
2023-04-17T18:10:37.138Z,15.56
2023-04-17T18:13:04.056Z,15.48
2023-04-17T18:15:32.154Z,15.32
2023-04-17T18:17:58.805Z,15.22
2023-04-17T18:20:25.832Z,15.11
2023-04-17T18:22:52.599Z,15.10
2023-04-17T18:25:19.585Z,15.02
2023-04-17T18:27:46.262Z,14.92
2023-04-17T18:30:14.149Z,14.85
2023-04-17T18:32:42.129Z,14.74
2023-04-17T18:35:09.322Z,14.55
2023-04-17T18:37:36.016Z,14.56
2023-04-17T18:40:03.134Z,14.45
2023-04-17T18:42:29.924Z,14.28
2023-04-17T18:44:56.762Z,14.16
2023-04-17T18:47:23.575Z,13.98
2023-04-17T18:49:53.097Z,13.95
2023-04-17T18:52:19.940Z,13.80
2023-04-17T18:54:46.629Z,13.71
2023-04-17T18:57:13.324Z,13.61
2023-04-17T18:59:42.003Z,13.53
2023-04-17T19:02:10.476Z,13.53
2023-04-17T19:04:37.191Z,13.41
2023-04-17T19:07:05.195Z,13.26
2023-04-17T19:09:31.961Z,13.21
2023-04-17T19:11:58.794Z,13.11
2023-04-17T19:14:25.436Z,12.88
2023-04-17T19:16:52.201Z,12.86
2023-04-17T19:19:19.073Z,12.84
2023-04-17T19:21:46.054Z,12.77
2023-04-17T19:24:14.031Z,12.73
2023-04-17T19:26:40.789Z,12.64
2023-04-17T19:29:07.554Z,12.62
2023-04-17T19:31:34.456Z,12.54
2023-04-17T19:34:01.184Z,12.41
2023-04-17T19:36:27.810Z,12.38
2023-04-17T19:38:55.017Z,12.26
2023-04-17T19:41:23.373Z,12.19
2023-04-17T19:43:51.239Z,12.16
2023-04-17T19:46:19.526Z,12.06
2023-04-17T19:48:47.270Z,12.05
2023-04-17T19:51:14.907Z,11.90
2023-04-17T19:53:43.077Z,11.93
2023-04-17T19:56:10.568Z,11.86
2023-04-17T19:58:39.880Z,11.82
2023-04-17T20:01:06.995Z,11.75
2023-04-17T20:03:33.881Z,11.70
2023-04-17T20:06:00.847Z,11.75
2023-04-17T20:08:27.884Z,11.66
2023-04-17T20:10:54.746Z,11.65
2023-04-17T20:13:21.398Z,11.59
2023-04-17T20:15:49.433Z,11.62
2023-04-17T20:18:17.298Z,11.58
2023-04-17T20:20:43.965Z,11.61
2023-04-17T20:23:10.587Z,11.55
2023-04-17T20:25:37.203Z,11.45
2023-04-17T20:28:04.072Z,11.53
2023-04-17T20:30:31.054Z,11.42
2023-04-17T20:32:59.338Z,11.42
2023-04-17T20:35:26.015Z,11.33
2023-04-17T20:37:52.727Z,11.35
2023-04-17T20:40:19.548Z,11.31
2023-04-17T20:42:47.179Z,11.32
2023-04-17T20:45:14.009Z,11.30
2023-04-17T20:47:55.427Z,11.32
2023-04-17T20:50:24.772Z,11.26
2023-04-17T20:52:51.467Z,11.42
2023-04-17T20:55:18.268Z,11.47
2023-04-17T20:57:51.818Z,11.48
2023-04-17T21:00:25.306Z,11.69
2023-04-17T21:03:05.070Z,11.70
2023-04-17T21:05:39.450Z,11.80
2023-04-17T21:08:18.695Z,11.87
2023-04-17T21:10:52.189Z,11.93
2023-04-17T21:13:31.661Z,12.02
2023-04-17T21:16:09.772Z,12.11
2023-04-17T21:18:36.511Z,12.08
2023-04-17T21:21:04.841Z,12.17
2023-04-17T21:23:31.481Z,12.07
2023-04-17T21:25:58.259Z,12.10
2023-04-17T21:28:24.902Z,12.00
2023-04-17T21:30:51.507Z,12.01
2023-04-17T21:33:18.126Z,11.96
2023-04-17T21:35:44.849Z,11.94
2023-04-17T21:38:12.836Z,11.90
2023-04-17T21:40:50.512Z,11.99
2023-04-17T21:43:18.022Z,11.95
2023-04-17T21:45:44.646Z,12.10
2023-04-17T21:48:11.440Z,12.05
2023-04-17T21:50:38.049Z,12.08
2023-04-17T21:53:04.843Z,12.07
2023-04-17T21:55:34.263Z,12.00
2023-04-17T21:58:02.088Z,12.01
2023-04-17T22:00:28.747Z,11.96
2023-04-17T22:02:55.534Z,11.85
2023-04-17T22:05:22.264Z,11.80
2023-04-17T22:07:54.795Z,11.78
2023-04-17T22:10:23.311Z,11.71
2023-04-17T22:12:51.380Z,11.69
2023-04-17T22:15:18.148Z,11.58
2023-04-17T22:17:44.939Z,11.56
2023-04-17T22:20:12.473Z,11.52
2023-04-17T22:22:57.745Z,11.41
2023-04-17T22:25:24.491Z,11.45
2023-04-17T22:28:30.298Z,11.37
2023-04-17T22:31:34.301Z,11.29
2023-04-17T22:34:19.539Z,11.31
2023-04-17T22:37:04.963Z,11.27
2023-04-17T22:40:27.482Z,11.20
2023-04-17T22:43:12.548Z,11.13
2023-04-17T22:45:40.496Z,11.05
2023-04-17T22:48:43.995Z,10.97
2023-04-17T22:51:10.642Z,10.91
2023-04-17T22:53:37.199Z,10.85
2023-04-17T22:56:41.137Z,10.81
2023-04-17T22:59:26.384Z,10.78
2023-04-17T23:01:54.688Z,10.70
2023-04-17T23:04:58.402Z,10.61
2023-04-17T23:07:43.775Z,10.55
2023-04-17T23:10:10.498Z,10.43
2023-04-17T23:12:37.380Z,10.44
2023-04-17T23:15:04.823Z,10.41
2023-04-17T23:17:32.852Z,10.31
2023-04-17T23:19:59.623Z,10.28
2023-04-17T23:22:26.284Z,10.22
2023-04-17T23:24:52.952Z,10.19
2023-04-17T23:27:20.053Z,10.20
2023-04-17T23:29:46.724Z,10.15
2023-04-17T23:32:13.342Z,10.05
2023-04-17T23:34:41.373Z,10.06
2023-04-17T23:37:08.142Z,10.04
2023-04-17T23:39:34.742Z,9.91
2023-04-17T23:42:01.425Z,9.85
2023-04-17T23:44:28.070Z,9.87
2023-04-17T23:46:54.811Z,9.81
2023-04-17T23:49:21.839Z,9.75
2023-04-17T23:51:49.809Z,9.71
2023-04-17T23:54:16.356Z,9.68
2023-04-17T23:56:42.938Z,9.68
2023-04-17T23:59:09.700Z,9.57
